»·PEaware :: N63663 KSAN-KAVX

N63663 :: KSAN-KAVX

FLIGHT INFORMATION

Flight Status: Arrived
Operator: Privately registered:
United States
More flights under this callsign
Pilot: Hassan P. (16390)
Aircraft: CESSNA 172 SKYHAWK
(C172)
More flights by this aircraft type
Origin: KSAN San Diego Intl-Lindbergh
United States
Destination: KAVX Catalina
United States
More flights between these airports :: More routes between these airports
Route: +MZB V23 OCN V208 SXC
File this flight plan on PilotEdge
Remarks: TEC route SANN1
Altitude:
(Current/Filed)
6,000ft
Speed:
(Current/Filed)
110kts
Departed: 29-Sep-17 09:48 PM
Arrived: 29-Sep-17 10:45 PM
Distance/Time
Traveled:
74nm/0:57
Distance/Time
To Go:
Arrived

Flight Plot

Page will automatically refresh every two minutes.


Map Options




Map Legend


Flown Route
Filed Route
Departure Airport
Arrival Airport
Navaid (VOR, NDB)
Fix

Horizontal Profiles

Position Reports

Time Latitude Longitude Heading Altitude Ground
Speed
29-Sep-17 21:40 32.732300 -117.177551 194 26ft 0kts
29-Sep-17 21:41 32.732300 -117.177551 194 26ft 0kts
29-Sep-17 21:42 32.732300 -117.177551 194 26ft 0kts
29-Sep-17 21:43 32.732300 -117.177551 194 26ft 0kts
29-Sep-17 21:44 32.732300 -117.177551 194 26ft 0kts
29-Sep-17 21:45 32.732300 -117.177551 194 26ft 0kts
29-Sep-17 21:46 32.732300 -117.177551 194 26ft 0kts
29-Sep-17 21:47 32.732300 -117.177551 194 26ft 0kts
29-Sep-17 21:48 32.732300 -117.177551 194 26ft 0kts
29-Sep-17 21:49 32.731290 -117.176362 102 25ft 6kts
29-Sep-17 21:50 32.730921 -117.175504 136 26ft 0kts
29-Sep-17 21:51 32.730305 -117.176272 284 21ft 26kts
29-Sep-17 21:52 32.737892 -117.196620 317 717ft 76kts
29-Sep-17 21:53 32.754437 -117.212213 318 1605ft 77kts
29-Sep-17 21:54 32.772700 -117.224907 350 2393ft 85kts
29-Sep-17 21:55 32.795713 -117.226478 346 3186ft 80kts
29-Sep-17 21:56 32.815287 -117.239094 341 3855ft 87kts
29-Sep-17 21:57 32.837550 -117.245553 342 4595ft 84kts
29-Sep-17 21:58 32.858073 -117.255330 334 5315ft 81kts
29-Sep-17 21:59 32.879574 -117.263006 335 5963ft 83kts
29-Sep-17 22:00 32.900139 -117.280874 313 6186ft 94kts
29-Sep-17 22:01 32.923930 -117.300434 333 6028ft 112kts
29-Sep-17 22:02 32.953929 -117.305642 337 5957ft 105kts
29-Sep-17 22:03 32.980975 -117.318253 350 5988ft 105kts
29-Sep-17 22:04 33.009616 -117.324910 335 5997ft 106kts
29-Sep-17 22:05 33.036852 -117.337902 331 6016ft 106kts
29-Sep-17 22:06 33.064821 -117.348738 336 6033ft 106kts
29-Sep-17 22:07 33.093122 -117.359736 344 6009ft 110kts
29-Sep-17 22:08 33.121554 -117.369479 335 6007ft 108kts
29-Sep-17 22:09 33.149702 -117.381657 346 6008ft 107kts
29-Sep-17 22:10 33.177730 -117.394095 337 5998ft 107kts
29-Sep-17 22:11 33.205685 -117.404768 326 5994ft 104kts
29-Sep-17 22:12 33.229277 -117.424442 279 5918ft 109kts
29-Sep-17 22:13 33.242555 -117.452846 320 5969ft 101kts
29-Sep-17 22:14 33.244693 -117.486268 264 5932ft 105kts
29-Sep-17 22:15 33.253198 -117.519198 276 5977ft 100kts
29-Sep-17 22:16 33.258360 -117.552185 287 6026ft 102kts
29-Sep-17 22:17 33.262342 -117.585598 282 6141ft 102kts
29-Sep-17 22:18 33.268865 -117.621227 279 6082ft 109kts
29-Sep-17 22:19 33.271302 -117.657491 274 6029ft 114kts
29-Sep-17 22:20 33.275452 -117.695675 279 5945ft 117kts
29-Sep-17 22:21 33.284870 -117.731623 291 5888ft 115kts
29-Sep-17 22:22 33.293228 -117.766025 277 5919ft 113kts
29-Sep-17 22:23 33.297595 -117.801227 272 5967ft 109kts
29-Sep-17 22:24 33.297509 -117.831318 271 5976ft 109kts
29-Sep-17 22:25 33.300813 -117.873131 277 6014ft 107kts
29-Sep-17 22:26 33.305512 -117.902047 282 6045ft 106kts
29-Sep-17 22:27 33.311970 -117.936430 283 6066ft 105kts
29-Sep-17 22:28 33.320745 -117.970197 283 6048ft 106kts
29-Sep-17 22:29 33.324862 -118.004351 270 6089ft 105kts
29-Sep-17 22:30 33.326636 -118.038920 273 6108ft 104kts
29-Sep-17 22:31 33.326111 -118.073451 270 5986ft 103kts
29-Sep-17 22:32 33.325867 -118.107565 262 5777ft 102kts
29-Sep-17 22:33 33.330888 -118.141004 282 5460ft 102kts
29-Sep-17 22:34 33.336366 -118.172785 270 4968ft 102kts
29-Sep-17 22:35 33.339628 -118.206166 278 4498ft 91kts
29-Sep-17 22:36 33.340392 -118.234439 261 4268ft 79kts
29-Sep-17 22:37 33.346144 -118.257584 284 4412ft 79kts
29-Sep-17 22:38 33.351713 -118.285178 278 4595ft 91kts
29-Sep-17 22:39 33.358353 -118.315946 288 4696ft 96kts
29-Sep-17 22:40 33.367115 -118.349246 290 4350ft 121kts
29-Sep-17 22:41 33.378267 -118.379030 297 4462ft 93kts
29-Sep-17 22:42 33.392460 -118.404039 304 4427ft 88kts
29-Sep-17 22:43 33.406499 -118.426501 310 4501ft 83kts
29-Sep-17 22:44 33.421317 -118.448209 304 4489ft 86kts
29-Sep-17 22:45 33.425080 -118.436001 142 3658ft 130kts
29-Sep-17 22:46 33.436336 -118.407363 63 3006ft 86kts
29-Sep-17 22:47 33.422043 -118.392392 199 2406ft 75kts
29-Sep-17 22:48 33.409033 -118.408913 238 1757ft 81kts
29-Sep-17 22:49 33.403430 -118.417782 82 1552ft 4kts
29-Sep-17 22:50 33.403177 -118.415786 58 1552ft 0kts

Navigation Log

Ident Type
1. KSAN Airport
2. MZB Navaid
3. CARIF Fix
4. HURSI Fix
5. OCN Navaid
6. HUBRD Fix
7. PACIF Fix
8. AVOLS Fix
9. SXC Navaid
10. KAVX Airport